FOOLFOOG

Guest
Details From FOOL - Libreville Airport
To FOOG - Port Gentil
Flight Number -
Tags generated
Created
Modified
Stats Distance 81 nm / 149 km
Max Altitude 8,300 ft / 2,530 m
Waypoints 3
Social Downloads 5
Likes 0
Share VATSIM

Download

Looking for another format? Having issues loading an existing format? Contact us
Advertisement - Login to hide

Notes

Basic altitude profile: - Ascent Rate: 2500ft/min - Ascent Speed: 250kts - Cruise Altitude: 35000ft - Cruise Speed: 420kts - Descent Rate: 1500ft/min - Descent Speed: 250kts Options: - Use NATs: yes - Use PACOTS: yes - Use low airways: yes - Use high airways: no

Route

FOOL TEMKI FOOG

ID Type Via Altitude (ft/m) Position (lat/lon) Dist (leg/tot) Name
O FOOL APT - 0 / 0 0.45844 / 9.41233 - / 0 nm Libreville Airport
TEMKI FIX - 8,300 / 2,530 -0.14056 / 9.06611 41 / 41 nm
O FOOG APT - 0 / 0 -0.71174 / 8.75438 39 / 80 nm Port Gentil

Altitude Profile

Advertisement - Login to hide

FOOL

Details ICAO FOOL (LBV)
Name Libreville Airport
Region Gabon
Timezone Africa/Libreville (UTC+1.0)
Stats Elevation 39 ft / 12 m (AMSL)
Location 0.458442° 9.412330°
Runways 1
Magnetic Variation 1.736° W

METAR

FOOL 252130Z 22008KT 180V250 9999 FEW014 27/22 Q1014 NOSIG

Decode

TAF

TAF FOOL 251700Z 2518/2624 22006KT 9999 SCT012 BKN030

Decode

Departure Runways

ID Width Length Bearing (true/mag) Surface Threshold Overrun Markings Lighting
16 148 ft / 45 m 9,852 ft / 3,003 m 154.26° / 156.00° ASPHALT 0 ft / 0 m 213 ft / 65 m PREC-APP EDGE THRESHOLD MALS
34 148 ft / 45 m 9,852 ft / 3,003 m 334.26° / 336.00° ASPHALT 0 ft / 0 m 210 ft / 64 m PREC-APP EDGE THRESHOLD

FOOG

Details ICAO FOOG (POG)
Name Port Gentil
Region Gabon
Timezone Africa/Libreville (UTC+1.0)
Stats Elevation 13 ft / 4 m (AMSL)
Location -0.711739° 8.754380°
Runways 1
Magnetic Variation 2.216° W

METAR

FOOG 252100Z 19006KT 9999 SCT010 25/22 Q1015

Decode

TAF

TAF FOOG 251700Z 2518/2618 20008KT 9999 SCT010= TAF FOOL 251700Z 2518/2624 22006KT 9999 SCT012 BKN030

Decode

Destination Runways

ID Width Length Bearing (true/mag) Surface Threshold Overrun Markings Lighting
03 148 ft / 45 m 6,265 ft / 1,910 m 22.17° / 24.39° ASPHALT 0 ft / 0 m 0 ft / 0 m APP CENTERLINE EDGE THRESHOLD
21 148 ft / 45 m 6,265 ft / 1,910 m 202.17° / 204.39° ASPHALT 0 ft / 0 m 197 ft / 60 m APP CENTERLINE EDGE THRESHOLD

Popular Alternatives